createdAt,value
2019-05-20T00:04:22.979Z,19.53
2019-05-20T00:09:29.255Z,19.05
2019-05-20T00:14:33.998Z,19.41
2019-05-20T00:19:38.847Z,19.36
2019-05-20T00:24:43.697Z,18.61
2019-05-20T00:29:48.638Z,18.43
2019-05-20T00:34:53.483Z,17.62
2019-05-20T00:39:59.567Z,18.97
2019-05-20T00:45:05.940Z,18.87
2019-05-20T00:50:10.686Z,18.78
2019-05-20T00:55:25.165Z,18.69
2019-05-20T01:00:30.011Z,18.00
2019-05-20T01:05:34.850Z,17.84
2019-05-20T01:10:39.475Z,18.46
2019-05-20T01:15:44.246Z,18.77
2019-05-20T01:20:49.081Z,18.72
2019-05-20T01:25:54.869Z,18.73
2019-05-20T01:30:59.692Z,18.55
2019-05-20T01:36:04.497Z,18.16
2019-05-20T01:41:09.205Z,18.23
2019-05-20T01:46:14.201Z,18.35
2019-05-20T01:51:19.183Z,17.97
2019-05-20T01:56:24.028Z,17.55
2019-05-20T02:01:29.825Z,17.77
2019-05-20T02:06:34.539Z,17.46
2019-05-20T02:11:39.279Z,17.90
2019-05-20T02:16:45.050Z,17.83
2019-05-20T02:21:49.794Z,18.16
2019-05-20T02:26:54.537Z,18.18
2019-05-20T02:31:59.276Z,17.64
2019-05-20T02:37:05.763Z,17.22
2019-05-20T02:42:10.410Z,17.87
2019-05-20T02:47:15.159Z,18.07
2019-05-20T02:52:19.892Z,18.07
2019-05-20T02:57:26.809Z,17.72
2019-05-20T03:02:31.426Z,17.05
2019-05-20T03:07:36.236Z,17.44
2019-05-20T03:12:41.117Z,18.05
2019-05-20T03:17:46.385Z,18.04
2019-05-20T03:22:51.117Z,18.20
2019-05-20T03:27:56.175Z,18.58
2019-05-20T03:33:01.128Z,18.62
2019-05-20T03:38:05.774Z,18.64
2019-05-20T03:43:11.540Z,18.61
2019-05-20T03:48:16.269Z,18.35
2019-05-20T03:53:21.004Z,18.22
2019-05-20T03:58:25.862Z,17.96
2019-05-20T04:03:30.602Z,18.32
2019-05-20T04:08:35.345Z,18.17
2019-05-20T04:13:39.998Z,18.30
2019-05-20T04:18:44.730Z,18.54
2019-05-20T04:23:49.416Z,18.39
2019-05-20T04:28:54.221Z,18.70
2019-05-20T04:33:58.964Z,18.55
2019-05-20T04:39:04.855Z,19.23
2019-05-20T04:44:09.582Z,19.37
2019-05-20T04:49:15.338Z,19.80
2019-05-20T04:54:20.292Z,20.10
2019-05-20T04:59:25.137Z,19.94
2019-05-20T05:04:29.778Z,20.08
2019-05-20T05:09:34.521Z,20.70
2019-05-20T05:14:39.239Z,20.34
2019-05-20T05:19:44.005Z,21.09
2019-05-20T05:24:48.696Z,21.42
2019-05-20T05:29:53.394Z,21.64
2019-05-20T05:34:58.559Z,21.99
2019-05-20T05:40:07.733Z,22.12
2019-05-20T05:45:10.097Z,22.19
2019-05-20T05:50:15.960Z,22.55
2019-05-20T05:55:21.005Z,22.59
2019-05-20T06:00:25.750Z,22.95
2019-05-20T06:05:31.688Z,23.06
2019-05-20T06:10:36.783Z,23.52
2019-05-20T06:15:41.619Z,23.98
2019-05-20T06:20:47.506Z,24.16
2019-05-20T06:25:52.336Z,23.72
2019-05-20T06:30:57.079Z,23.14
2019-05-20T06:36:01.858Z,23.15
2019-05-20T06:41:08.919Z,24.05
2019-05-20T06:46:13.773Z,23.81
2019-05-20T06:51:18.411Z,24.71
2019-05-20T06:56:24.177Z,24.92
2019-05-20T07:01:28.918Z,24.43
2019-05-20T07:06:46.000Z,25.24
2019-05-20T07:11:51.623Z,25.19
2019-05-20T07:16:47.354Z,25.23
2019-05-20T07:21:52.196Z,25.80
2019-05-20T07:26:57.053Z,25.30
2019-05-20T07:32:01.831Z,23.83
2019-05-20T07:37:06.869Z,25.35
2019-05-20T07:42:11.787Z,24.60
2019-05-20T07:47:16.397Z,24.44
2019-05-20T07:52:21.403Z,25.49
2019-05-20T07:57:28.195Z,26.11
2019-05-20T08:02:32.918Z,26.10
2019-05-20T08:07:51.492Z,25.20
2019-05-20T08:12:43.962Z,25.65
2019-05-20T08:17:50.322Z,25.98
2019-05-20T08:22:54.993Z,26.63
2019-05-20T08:27:59.809Z,27.62
2019-05-20T08:33:04.818Z,27.63
2019-05-20T08:38:09.675Z,27.68
2019-05-20T08:43:14.440Z,28.20
2019-05-20T08:48:19.091Z,28.09
2019-05-20T08:53:23.697Z,27.92
2019-05-20T08:58:29.503Z,28.74
2019-05-20T09:03:34.206Z,28.04
2019-05-20T09:08:38.993Z,27.86
2019-05-20T09:13:43.710Z,27.34
2019-05-20T09:18:49.615Z,27.82
2019-05-20T09:23:54.455Z,28.64
2019-05-20T09:28:59.506Z,27.66
2019-05-20T09:34:04.276Z,28.68
2019-05-20T09:39:09.837Z,28.81
2019-05-20T09:44:14.561Z,28.32
2019-05-20T09:49:19.813Z,28.48
2019-05-20T09:54:24.568Z,28.15
2019-05-20T09:59:42.121Z,28.32
2019-05-20T10:04:35.582Z,27.03
2019-05-20T10:09:40.236Z,28.39
2019-05-20T10:14:45.091Z,27.30
2019-05-20T10:19:49.918Z,27.48
2019-05-20T10:24:54.840Z,27.64
2019-05-20T10:30:01.197Z,28.19
2019-05-20T10:35:07.263Z,27.63
2019-05-20T10:40:12.170Z,27.77
2019-05-20T10:45:16.914Z,27.37
2019-05-20T10:50:21.658Z,27.56
2019-05-20T10:55:27.383Z,26.99
2019-05-20T11:00:35.074Z,26.32
2019-05-20T11:05:39.886Z,25.99
2019-05-20T11:10:44.638Z,24.50
2019-05-20T11:15:49.756Z,24.72
2019-05-20T11:20:54.739Z,24.76
2019-05-20T11:25:59.744Z,23.96
2019-05-20T11:31:04.526Z,23.75
2019-05-20T11:36:09.234Z,22.73
2019-05-20T11:41:14.042Z,22.65
2019-05-20T11:46:18.626Z,23.12
2019-05-20T11:51:23.508Z,24.05
2019-05-20T11:56:28.159Z,23.74
2019-05-20T12:01:33.437Z,23.47
2019-05-20T12:06:38.127Z,22.34
2019-05-20T12:11:43.114Z,22.85
2019-05-20T12:16:48.975Z,22.99
2019-05-20T12:21:54.435Z,23.01
2019-05-20T12:26:59.321Z,22.90
2019-05-20T12:32:05.905Z,21.75
2019-05-20T12:37:10.666Z,23.31
2019-05-20T12:42:15.450Z,22.70
2019-05-20T12:47:20.818Z,23.62
2019-05-20T12:52:26.552Z,24.57
2019-05-20T12:57:31.213Z,23.27
2019-05-20T13:02:35.922Z,23.51
2019-05-20T13:07:40.704Z,23.77
2019-05-20T13:12:45.286Z,23.87
2019-05-20T13:17:50.088Z,24.08
2019-05-20T13:22:55.370Z,23.77
2019-05-20T13:28:00.088Z,23.60
2019-05-20T13:33:06.265Z,23.35
2019-05-20T13:38:11.157Z,23.71
2019-05-20T13:43:15.740Z,22.50
2019-05-20T13:48:20.499Z,22.05
2019-05-20T13:53:25.245Z,21.92
2019-05-20T13:58:30.054Z,22.19
2019-05-20T14:03:36.061Z,21.42
2019-05-20T14:08:41.631Z,21.28
2019-05-20T14:13:46.471Z,21.33
2019-05-20T14:18:52.415Z,21.32
2019-05-20T14:23:57.295Z,20.51
2019-05-20T14:29:02.035Z,19.53
2019-05-20T14:34:07.940Z,20.11
2019-05-20T14:39:12.749Z,20.32
2019-05-20T14:44:18.138Z,19.51
2019-05-20T14:49:22.961Z,20.15
2019-05-20T14:54:28.105Z,19.94
2019-05-20T14:59:33.903Z,20.96
2019-05-20T15:04:39.803Z,21.23
2019-05-20T15:09:45.133Z,21.53
2019-05-20T15:14:50.050Z,21.61
2019-05-20T15:19:54.904Z,22.01
2019-05-20T15:25:00.716Z,21.42
2019-05-20T15:30:07.267Z,21.41
2019-05-20T15:35:12.507Z,21.45
2019-05-20T15:40:23.565Z,21.25
2019-05-20T15:45:25.276Z,21.46
2019-05-20T15:50:30.121Z,20.93
2019-05-20T15:55:35.073Z,21.48
2019-05-20T16:00:40.373Z,21.35
2019-05-20T16:05:45.178Z,21.38
2019-05-20T16:10:50.325Z,21.03
2019-05-20T16:15:55.173Z,21.22
2019-05-20T16:21:00.841Z,21.61
2019-05-20T16:26:06.601Z,21.58
2019-05-20T16:31:11.364Z,21.83
2019-05-20T16:36:16.291Z,21.72
2019-05-20T16:41:21.548Z,22.06
2019-05-20T16:46:26.450Z,22.13
2019-05-20T16:51:33.090Z,21.92
2019-05-20T16:56:37.930Z,22.07
2019-05-20T17:01:46.151Z,21.82
2019-05-20T17:06:48.954Z,21.89
2019-05-20T17:11:55.548Z,21.31
2019-05-20T17:17:00.366Z,21.07
2019-05-20T17:22:05.775Z,21.32
2019-05-20T17:27:10.402Z,20.09
2019-05-20T17:32:15.036Z,20.19
2019-05-20T17:37:20.184Z,19.67
2019-05-20T17:42:25.031Z,19.44
2019-05-20T17:47:30.396Z,19.36
2019-05-20T17:52:35.658Z,18.67
2019-05-20T17:57:40.396Z,19.51
2019-05-20T18:02:45.027Z,18.30
2019-05-20T18:07:49.882Z,18.39
2019-05-20T18:12:55.172Z,17.60
2019-05-20T18:18:00.488Z,18.73
2019-05-20T18:23:05.745Z,17.56
2019-05-20T18:28:12.879Z,17.33
2019-05-20T18:33:17.692Z,18.29
2019-05-20T18:38:22.432Z,18.17
2019-05-20T18:43:27.172Z,18.05
2019-05-20T18:48:31.817Z,18.30
2019-05-20T18:53:36.664Z,18.08
2019-05-20T18:58:41.640Z,17.36
2019-05-20T19:03:46.584Z,17.14
2019-05-20T19:08:52.639Z,17.16
2019-05-20T19:13:57.387Z,17.42
2019-05-20T19:19:02.182Z,18.15
2019-05-20T19:24:06.964Z,17.23
2019-05-20T19:29:11.591Z,17.41
2019-05-20T19:34:16.329Z,17.36
2019-05-20T19:39:22.046Z,17.82
2019-05-20T19:44:27.287Z,17.55
2019-05-20T19:49:32.912Z,16.39
2019-05-20T19:54:37.782Z,17.02
2019-05-20T19:59:42.540Z,17.48
2019-05-20T20:04:47.593Z,17.26
2019-05-20T20:09:52.322Z,16.38
2019-05-20T20:14:57.171Z,17.16
2019-05-20T20:20:02.866Z,16.94
2019-05-20T20:25:09.222Z,16.18
2019-05-20T20:30:13.961Z,16.59
2019-05-20T20:35:19.010Z,15.99
2019-05-20T20:40:23.751Z,15.63
2019-05-20T20:45:28.388Z,16.00
2019-05-20T20:50:33.241Z,16.56
2019-05-20T20:55:37.980Z,16.22
2019-05-20T21:00:42.766Z,16.55
2019-05-20T21:05:47.573Z,16.24
2019-05-20T21:10:52.325Z,16.72
2019-05-20T21:15:58.653Z,16.17
2019-05-20T21:21:03.237Z,16.07
2019-05-20T21:26:07.984Z,16.11
2019-05-20T21:31:12.937Z,16.59
2019-05-20T21:36:17.769Z,15.11
2019-05-20T21:41:22.518Z,15.81
2019-05-20T21:46:27.316Z,15.21
2019-05-20T21:51:32.208Z,15.92
2019-05-20T21:56:38.087Z,15.55
2019-05-20T22:01:42.822Z,15.68
2019-05-20T22:06:47.876Z,15.03
2019-05-20T22:11:52.614Z,15.08
2019-05-20T22:16:57.361Z,15.56
2019-05-20T22:22:10.092Z,14.58
2019-05-20T22:27:15.125Z,15.73
2019-05-20T22:32:20.086Z,14.96
2019-05-20T22:37:26.340Z,14.48
2019-05-20T22:42:31.005Z,14.74
2019-05-20T22:47:35.892Z,14.19
2019-05-20T22:52:40.768Z,14.10
2019-05-20T22:57:45.747Z,14.64
2019-05-20T23:02:50.379Z,14.33
2019-05-20T23:07:55.037Z,14.35
2019-05-20T23:12:59.777Z,14.16
2019-05-20T23:18:04.519Z,14.50
2019-05-20T23:23:09.363Z,14.58
2019-05-20T23:28:14.107Z,14.37
2019-05-20T23:33:18.847Z,14.31
2019-05-20T23:38:23.485Z,14.72
2019-05-20T23:43:28.121Z,15.48
2019-05-20T23:48:32.879Z,15.40
2019-05-20T23:53:37.520Z,15.23
2019-05-20T23:58:42.567Z,15.48
